Time;durP1;ratioP1;P1;durP2;ratioP2;P2;SDS_P1;SDS_P2;PMS_P1;PMS_P2;Temp;Humidity;BMP_temperature;BMP_pressure;BME280_temperature;BME280_humidity;BME280_pressure;Samples;Min_cycle;Max_cycle;Signal;HPM_P1;HPM_P2
2021/12/16 00:03:47;;;;;;;44.72;20.58;;;8.70;99.90;;;7.09;100.00;102994.88;2566315;30;137350;-41
2021/12/16 00:09:01;;;;;;;45.22;20.10;;;8.70;99.90;;;7.11;100.00;102986.59;2566068;30;137664;-41
2021/12/16 00:33:40;;;;;;;48.75;22.13;;;8.60;99.90;;;7.02;100.00;102999.13;2567924;30;138164;-41
2021/12/16 00:36:10;;;;;;;49.30;22.55;;;8.60;99.90;;;7.08;100.00;103003.16;2567196;30;137542;-41
2021/12/16 00:38:42;;;;;;;47.47;23.17;;;8.60;99.90;;;7.05;100.00;103004.31;2568499;30;139767;-41
2021/12/16 00:41:10;;;;;;;49.75;23.50;;;8.60;99.90;;;7.03;100.00;103012.56;2567736;30;136897;-41
2021/12/16 00:43:53;;;;;;;;;;;8.60;99.90;;;7.00;100.00;103014.69;2568472;30;138291;-41
2021/12/16 00:46:56;;;;;;;51.78;23.73;;;8.60;99.90;;;6.95;100.00;102997.94;2567717;30;137069;-41
2021/12/16 00:54:38;;;;;;;48.17;21.85;;;8.50;99.90;;;6.88;100.00;103011.19;2566700;30;138195;-41
2021/12/16 00:57:12;;;;;;;47.10;21.63;;;8.50;99.90;;;6.86;100.00;103010.47;2567099;30;137546;-41
2021/12/16 00:59:47;;;;;;;49.33;22.25;;;8.50;99.90;;;6.78;100.00;103000.31;2567755;30;137300;-41
2021/12/16 01:33:32;;;;;;;49.42;22.88;;;8.40;99.90;;;6.76;100.00;103016.69;2566578;30;139333;-41
2021/12/16 01:52:33;;;;;;;40.53;19.20;;;8.10;99.90;;;6.42;100.00;103035.00;2567897;30;138704;-41
2021/12/16 01:57:25;;;;;;;42.20;19.10;;;8.00;99.90;;;6.37;100.00;103038.13;2568863;30;138627;-41
2021/12/16 02:00:03;;;;;;;46.05;20.23;;;8.00;99.90;;;6.36;100.00;103038.25;2568230;30;139277;-41
2021/12/16 02:02:50;;;;;;;40.00;18.08;;;8.00;99.90;;;6.33;100.00;103036.66;2566989;30;136892;-41
2021/12/16 02:06:15;;;;;;;44.88;21.05;;;8.00;99.90;;;6.32;100.00;103040.34;2567748;30;138090;-41
2021/12/16 02:08:20;;;;;;;38.08;18.48;;;8.00;99.90;;;6.31;100.00;103049.47;2567710;30;138389;-41
2021/12/16 02:36:22;;;;;;;38.17;18.55;;;7.90;99.90;;;6.19;100.00;103038.69;2566820;30;139409;-41
2021/12/16 02:39:04;;;;;;;40.75;20.00;;;7.90;99.90;;;6.22;100.00;103056.53;2567999;30;137350;-41
2021/12/16 02:41:32;;;;;;;45.08;21.23;;;7.80;99.90;;;6.19;100.00;103054.97;2566456;30;138541;-41
2021/12/16 02:49:47;;;;;;;42.47;19.23;;;7.80;99.90;;;6.10;100.00;103063.00;2566552;30;138196;-41
2021/12/16 02:52:18;;;;;;;34.15;16.48;;;7.70;99.90;;;6.07;100.00;103057.84;2567562;30;137413;-41
2021/12/16 02:54:47;;;;;;;39.15;18.55;;;7.70;99.90;;;6.01;100.00;103057.38;2568140;30;139827;-41
2021/12/16 02:57:16;;;;;;;35.17;16.83;;;7.70;99.90;;;6.00;100.00;103054.72;2567031;30;138731;-41
2021/12/16 02:59:47;;;;;;;38.95;17.88;;;7.70;99.90;;;5.95;100.00;103059.69;2568086;30;138905;-41
2021/12/16 03:02:17;;;;;;;37.50;17.10;;;7.60;99.90;;;5.88;100.00;103052.06;2568226;30;138243;-41
2021/12/16 03:04:52;;;;;;;35.60;16.75;;;7.60;99.90;;;5.83;100.00;103056.97;2567901;30;139908;-41
2021/12/16 03:07:22;;;;;;;36.35;16.65;;;7.50;99.90;;;5.78;100.00;103056.50;2568869;30;137463;-41
2021/12/16 03:15:31;;;;;;;38.05;17.75;;;7.30;99.90;;;5.68;100.00;103048.25;2565967;30;137412;-41
2021/12/16 03:20:44;;;;;;;36.63;16.52;;;7.30;99.90;;;5.61;100.00;103047.94;2569006;30;137363;-41
2021/12/16 03:28:59;;;;;;;35.70;17.23;;;7.30;99.90;;;5.54;100.00;103057.50;2569599;30;137716;-41
2021/12/16 03:37:14;;;;;;;35.72;16.45;;;7.20;99.90;;;5.43;100.00;103060.25;2568917;30;138793;-41
2021/12/16 03:43:50;;;;;;;33.85;16.33;;;7.10;99.90;;;5.34;100.00;103064.53;2569778;30;138006;-38
2021/12/16 03:46:27;;;;;;;34.58;16.25;;;7.10;99.90;;;5.27;100.00;103052.50;2568922;30;139884;-38
2021/12/16 03:49:05;;;;;;;38.42;16.65;;;7.00;99.90;;;5.29;100.00;103062.19;2568178;30;137834;-38
2021/12/16 03:51:40;;;;;;;32.58;16.15;;;7.00;99.90;;;5.25;100.00;103058.00;2569618;30;139428;-38
2021/12/16 03:54:24;;;;;;;31.02;15.13;;;7.00;99.90;;;5.26;100.00;103069.72;2569743;30;138787;-38
2021/12/16 03:56:59;;;;;;;31.23;14.65;;;6.90;99.90;;;5.23;100.00;103076.22;2568881;30;138506;-38
2021/12/16 03:59:32;;;;;;;34.20;15.63;;;6.90;99.90;;;5.22;100.00;103065.53;2567394;30;138755;-38
2021/12/16 04:02:31;;;;;;;28.65;14.38;;;6.90;99.90;;;5.20;100.00;103075.63;2567020;30;139914;-38
2021/12/16 04:05:00;;;;;;;35.58;15.48;;;6.90;99.90;;;5.17;100.00;103080.28;2568970;30;138912;-38
2021/12/16 04:07:37;;;;;;;38.33;16.98;;;6.90;99.90;;;5.17;100.00;103082.13;2567058;30;140863;-38
2021/12/16 04:10:36;;;;;;;37.60;16.70;;;6.90;99.90;;;5.15;100.00;103079.53;2568368;30;138636;-38
2021/12/16 04:13:15;;;;;;;31.98;15.45;;;6.80;99.90;;;5.16;100.00;103083.13;2570087;30;140106;-38
2021/12/16 04:15:47;;;;;;;37.58;16.88;;;6.80;99.90;;;5.13;100.00;103081.50;2568204;30;139528;-38
2021/12/16 04:18:20;;;;;;;37.70;16.92;;;6.80;99.90;;;5.11;100.00;103071.78;2569635;30;139550;-38
2021/12/16 04:20:48;;;;;;;37.30;16.95;;;6.80;99.90;;;5.11;100.00;103082.63;2569131;30;138262;-38
2021/12/16 04:23:18;;;;;;;;;;;6.80;99.90;;;5.06;100.00;103066.72;2571729;30;137611;-42
2021/12/16 04:25:48;;;;;;;34.03;14.70;;;6.80;99.90;;;5.08;100.00;103082.88;2570118;30;137783;-38
2021/12/16 04:28:26;;;;;;;28.23;13.45;;;6.70;99.90;;;5.03;100.00;103075.94;2570423;30;140353;-39
2021/12/16 04:30:58;;;;;;;27.83;13.48;;;6.70;99.90;;;5.01;100.00;103075.19;2568306;30;139428;-38
2021/12/16 04:33:28;;;;;;;33.75;15.82;;;6.70;99.90;;;4.96;100.00;103080.13;2568714;30;138503;-38
2021/12/16 04:35:57;;;;;;;34.42;14.52;;;6.70;99.90;;;4.90;100.00;103088.72;2569265;30;139437;-38
2021/12/16 04:38:26;;;;;;;29.63;14.43;;;6.60;99.90;;;4.86;100.00;103087.25;2569253;30;139670;-38
2021/12/16 04:40:53;;;;;;;26.63;12.93;;;6.60;99.90;;;4.83;100.00;103091.03;2568568;30;139320;-38
2021/12/16 04:43:23;;;;;;;28.20;12.73;;;6.60;99.90;;;4.81;100.00;103092.16;2568945;30;137470;-38
2021/12/16 04:46:18;;;;;;;25.25;12.57;;;6.60;99.90;;;4.76;100.00;103089.78;2567556;30;139119;-38
2021/12/16 04:48:51;;;;;;;23.17;11.80;;;6.50;99.90;;;4.69;100.00;103089.41;2568015;30;140840;-38
2021/12/16 04:51:34;;;;;;;24.08;12.32;;;6.40;99.90;;;4.60;100.00;103090.94;2569494;30;138847;-38
2021/12/16 04:54:04;;;;;;;32.22;14.02;;;6.40;99.90;;;4.57;100.00;103084.94;2568654;30;141195;-38
2021/12/16 04:56:35;;;;;;;27.95;13.63;;;6.30;99.90;;;4.49;100.00;103092.75;2568673;30;139083;-38
2021/12/16 04:59:14;;;;;;;26.23;12.38;;;6.30;99.90;;;4.37;100.00;103095.41;2567288;30;137545;-38
2021/12/16 05:01:51;;;;;;;27.55;12.52;;;6.20;99.90;;;4.29;100.00;103087.03;2566946;30;137285;-38
2021/12/16 05:04:42;;;;;;;36.10;14.00;;;6.10;99.90;;;4.14;100.00;103089.88;2568788;30;139766;-39
2021/12/16 05:07:11;;;;;;;25.30;12.25;;;6.00;99.90;;;4.05;100.00;103084.31;2569557;30;140432;-38
2021/12/16 05:12:24;;;;;;;25.00;12.68;;;5.80;99.90;;;3.89;100.00;103085.44;2569124;30;137100;-38
2021/12/16 05:14:53;;;;;;;24.27;11.33;;;5.70;99.90;;;3.81;100.00;103085.13;2568413;30;139723;-38
2021/12/16 05:17:46;;;;;;;17.00;9.38;;;5.60;99.90;;;3.74;100.00;103074.78;2565861;30;137397;-38
2021/12/16 05:20:20;;;;;;;21.00;10.10;;;5.60;99.90;;;3.73;100.00;103085.72;2569462;30;139681;-38
2021/12/16 05:28:41;;;;;;;;;;;5.40;99.90;;;3.45;100.00;103087.72;2570987;30;137623;-38
2021/12/16 05:31:11;;;;;;;19.55;10.15;;;5.20;99.90;;;3.40;100.00;103093.44;2567734;30;141091;-38
2021/12/16 05:33:43;;;;;;;25.23;12.27;;;5.20;99.90;;;3.37;100.00;103092.75;2567687;30;138240;-38
2021/12/16 05:36:11;;;;;;;26.63;12.40;;;5.20;99.90;;;3.33;100.00;103096.66;2566404;30;138848;-38
2021/12/16 05:38:39;;;;;;;;;;;5.10;99.90;;;3.20;100.00;103100.25;2569492;30;139385;-38
2021/12/16 05:41:11;;;;;;;33.35;13.57;;;5.10;99.90;;;3.19;100.00;103097.63;2569689;30;139823;-39
2021/12/16 05:43:40;;;;;;;28.08;13.15;;;5.00;99.90;;;3.11;100.00;103114.34;2568667;30;139026;-38
2021/12/16 05:46:12;;;;;;;28.20;12.93;;;4.90;99.90;;;3.05;100.00;103112.97;2566739;30;139296;-38
2021/12/16 05:48:42;;;;;;;27.38;12.90;;;4.90;99.90;;;2.99;100.00;103111.56;2568473;30;138904;-38
2021/12/16 05:51:16;;;;;;;32.95;14.18;;;4.80;99.90;;;2.90;100.00;103116.72;2569094;30;140672;-38
2021/12/16 05:53:46;;;;;;;31.50;13.48;;;4.70;99.90;;;2.83;100.00;103118.97;2567756;30;136665;-38
2021/12/16 05:56:32;;;;;;;30.88;13.70;;;4.70;99.90;;;2.81;100.00;103131.69;2568061;30;139513;-38
2021/12/16 05:59:00;;;;;;;28.73;13.40;;;4.60;99.90;;;2.76;100.00;103131.13;2567211;30;139249;-38
2021/12/16 06:01:31;;;;;;;;;;;4.60;99.90;;;2.68;100.00;103129.81;2566258;30;139759;-38
2021/12/16 06:04:00;;;;;;;30.63;13.27;;;4.50;99.90;;;2.63;100.00;103134.63;2568575;30;139333;-38
2021/12/16 06:06:29;;;;;;;27.83;12.52;;;4.50;99.90;;;2.57;100.00;103141.34;2567843;30;138347;-38
2021/12/16 06:08:59;;;;;;;27.67;13.48;;;4.40;99.90;;;2.56;100.00;103138.72;2568014;30;138526;-38
2021/12/16 06:11:31;;;;;;;29.50;13.55;;;4.40;99.90;;;2.54;100.00;103135.28;2567005;30;137581;-38
2021/12/16 06:26:24;;;;;;;29.92;13.25;;;4.20;99.90;;;2.30;100.00;103160.16;2566960;30;137519;-38
2021/12/16 06:28:08;;;;;;;23.73;12.23;;;4.10;99.90;;;2.19;100.00;103168.09;2568597;30;138919;-38
2021/12/16 06:30:42;;;;;;;27.10;12.15;;;4.00;99.90;;;2.15;100.00;103162.91;2569481;30;138260;-38
2021/12/16 06:33:15;;;;;;;31.27;12.38;;;4.00;99.90;;;2.14;100.00;103160.31;2568432;30;137842;-38
2021/12/16 06:35:44;;;;;;;32.60;12.75;;;4.00;99.90;;;2.11;100.00;103155.13;2567927;30;137720;-38
2021/12/16 06:38:12;;;;;;;29.00;13.27;;;4.00;99.90;;;2.06;100.00;103155.41;2570375;30;138400;-38
2021/12/16 06:40:57;;;;;;;28.30;11.10;;;3.90;99.90;;;1.98;100.00;103153.22;2568125;30;139814;-38
2021/12/16 06:43:56;;;;;;;24.27;10.80;;;3.90;99.90;;;2.01;100.00;103162.94;2570019;30;136816;-38
2021/12/16 06:46:31;;;;;;;23.58;11.32;;;3.90;99.90;;;1.99;100.00;103165.75;2568539;30;137526;-38
2021/12/16 06:49:01;;;;;;;28.02;12.45;;;3.90;99.90;;;1.98;100.00;103171.22;2568594;30;137361;-38
2021/12/16 06:52:05;;;;;;;26.48;11.75;;;3.80;99.90;;;1.95;100.00;103176.78;2568774;30;136565;-38
2021/12/16 06:54:30;;;;;;;24.40;10.68;;;3.80;99.90;;;1.83;100.00;103168.50;2569851;30;139229;-38
2021/12/16 06:57:25;;;;;;;29.05;12.02;;;3.70;99.90;;;1.78;100.00;103176.03;2567895;30;137632;-38
2021/12/16 07:00:01;;;;;;;26.17;11.00;;;3.70;99.90;;;1.78;100.00;103183.25;2567127;30;137631;-38
2021/12/16 07:02:49;;;;;;;30.13;12.93;;;3.60;99.90;;;1.76;100.00;103182.47;2570075;30;136655;-38
2021/12/16 07:05:20;;;;;;;26.17;12.52;;;3.60;99.90;;;1.74;100.00;103174.50;2567961;30;138367;-38
2021/12/16 07:07:49;;;;;;;31.38;12.98;;;3.60;99.90;;;1.76;100.00;103179.78;2567728;30;137674;-38
2021/12/16 07:10:19;;;;;;;35.63;14.75;;;3.60;99.90;;;1.72;100.00;103188.06;2569042;30;138092;-38
2021/12/16 07:12:49;;;;;;;41.72;16.52;;;3.60;99.90;;;1.68;100.00;103186.50;2569753;30;137546;-38
2021/12/16 07:15:29;;;;;;;37.97;15.38;;;3.50;99.90;;;1.72;100.00;103188.06;2570803;30;140552;-38
2021/12/16 07:17:57;;;;;;;40.72;16.73;;;3.60;99.90;;;1.74;100.00;103198.72;2568295;30;137350;-38
2021/12/16 07:20:30;;;;;;;49.08;18.13;;;3.60;99.90;;;1.75;100.00;103213.06;2569374;30;138268;-38
2021/12/16 07:23:00;;;;;;;46.80;18.80;;;3.60;99.90;;;1.72;100.00;103220.38;2566899;30;137397;-38
2021/12/16 07:25:28;;;;;;;44.85;18.05;;;3.60;99.90;;;1.74;100.00;103217.56;2566283;30;137622;-38
2021/12/16 07:27:56;;;;;;;44.97;16.75;;;3.60;99.90;;;1.70;100.00;103229.47;2566619;30;138608;-38
2021/12/16 07:30:24;;;;;;;45.50;18.20;;;3.50;99.90;;;1.68;100.00;103220.63;2568633;30;138573;-38
2021/12/16 07:32:53;;;;;;;49.10;18.23;;;3.50;99.90;;;1.71;100.00;103236.59;2569845;30;137379;-38
2021/12/16 07:35:26;;;;;;;47.75;19.70;;;3.50;99.90;;;1.84;100.00;103234.00;2570521;30;138151;-38
2021/12/16 07:37:55;;;;;;;48.33;19.33;;;3.60;99.90;;;2.02;100.00;103240.06;2568485;30;138152;-38
2021/12/16 07:40:27;;;;;;;45.97;18.77;;;3.70;99.90;;;2.17;100.00;103251.69;2568446;30;138857;-38
2021/12/16 07:45:28;;;;;;;37.95;17.58;;;3.90;99.90;;;2.28;100.00;103254.59;2566099;30;138545;-38
2021/12/16 07:47:56;;;;;;;44.78;17.77;;;4.00;99.90;;;2.38;100.00;103260.22;2571770;30;136832;-38
2021/12/16 07:50:24;;;;;;;;;;;4.10;99.90;;;2.46;100.00;103256.19;2570061;30;137760;-38
2021/12/16 07:52:53;;;;;;;40.97;16.92;;;4.20;99.90;;;2.53;100.00;103241.34;2571134;30;136987;-38
2021/12/16 07:55:21;;;;;;;42.92;17.27;;;4.20;99.90;;;2.62;100.00;103256.91;2570806;30;137501;-38
2021/12/16 07:57:49;;;;;;;45.03;18.65;;;4.30;99.90;;;2.74;100.00;103255.25;2571558;30;136908;-38
2021/12/16 08:00:27;;;;;;;;;;;4.40;99.90;;;2.88;100.00;103252.50;2570966;30;138160;-38
2021/12/16 08:02:55;;;;;;;39.03;17.67;;;4.60;99.90;;;2.98;100.00;103252.78;2569885;30;136994;-38
2021/12/16 08:05:26;;;;;;;43.10;17.95;;;4.60;99.90;;;3.14;100.00;103252.59;2569007;30;137844;-38
2021/12/16 08:07:54;;;;;;;46.78;20.23;;;4.70;99.90;;;3.34;100.00;103266.56;2570283;30;137939;-38
2021/12/16 08:10:23;;;;;;;43.70;18.33;;;4.90;99.90;;;3.35;100.00;103252.13;2570974;30;136776;-38
2021/12/16 08:12:52;;;;;;;45.05;18.63;;;5.00;99.90;;;3.48;100.00;103273.72;2569993;30;136732;-38
2021/12/16 08:15:21;;;;;;;39.65;18.40;;;5.10;99.90;;;3.54;100.00;103276.00;2565922;30;136829;-38
2021/12/16 08:17:49;;;;;;;46.05;18.83;;;5.20;99.90;;;3.58;100.00;103255.91;2568852;30;138361;-38
2021/12/16 08:20:18;;;;;;;40.60;18.95;;;5.30;99.90;;;3.71;100.00;103276.66;2569072;30;138355;-38
2021/12/16 08:22:50;;;;;;;50.33;20.38;;;5.40;99.90;;;3.83;100.00;103286.59;2570983;30;137777;-38
2021/12/16 08:25:21;;;;;;;35.83;17.55;;;5.40;99.90;;;3.86;100.00;103278.28;2569630;30;137402;-38
2021/12/16 08:27:52;;;;;;;41.58;18.60;;;5.50;99.90;;;3.88;100.00;103267.38;2569914;30;138583;-38
2021/12/16 08:30:26;;;;;;;41.67;18.70;;;5.60;99.90;;;4.00;100.00;103290.81;2568290;30;137152;-38
2021/12/16 08:32:56;;;;;;;42.30;19.15;;;5.60;99.90;;;4.09;100.00;103285.72;2570352;30;138097;-38
2021/12/16 08:35:23;;;;;;;39.63;18.33;;;5.70;99.90;;;4.15;100.00;103283.47;2568838;30;137839;-38
2021/12/16 08:37:51;;;;;;;45.80;19.88;;;5.80;99.90;;;4.21;100.00;103295.69;2569895;30;136788;-38
2021/12/16 08:40:22;;;;;;;45.15;18.83;;;5.80;99.90;;;4.30;100.00;103296.88;2568518;30;138087;-38
2021/12/16 08:42:51;;;;;;;42.47;18.63;;;5.90;99.90;;;4.36;100.00;103296.41;2569473;30;137617;-38
2021/12/16 08:45:25;;;;;;;42.63;18.60;;;6.00;99.90;;;4.42;100.00;103304.06;2568401;30;137351;-38
2021/12/16 08:47:54;;;;;;;47.05;19.48;;;6.10;99.90;;;4.54;100.00;103296.91;2569640;30;137336;-38
2021/12/16 08:50:29;;;;;;;44.45;20.45;;;6.10;99.90;;;4.58;100.00;103294.88;2569994;30;138118;-38
2021/12/16 08:52:59;;;;;;;44.55;19.35;;;6.20;99.90;;;4.65;100.00;103301.53;2570012;30;138430;-38
2021/12/16 08:55:32;;;;;;;42.17;19.33;;;6.30;99.90;;;4.74;100.00;103308.97;2568794;30;138228;-38
2021/12/16 08:58:02;;;;;;;45.38;20.23;;;6.30;99.90;;;4.81;100.00;103320.22;2568549;30;137683;-38
2021/12/16 09:00:41;;;;;;;43.65;18.73;;;6.40;99.90;;;4.88;100.00;103320.63;2569498;30;137799;-38
2021/12/16 09:03:10;;;;;;;53.30;21.30;;;6.50;99.90;;;4.88;100.00;103315.22;2566408;30;137490;-38
2021/12/16 09:05:39;;;;;;;53.88;22.20;;;6.50;99.90;;;5.02;100.00;103331.28;2569323;30;137264;-38
2021/12/16 09:08:07;;;;;;;55.70;22.67;;;6.60;99.90;;;5.07;100.00;103330.94;2568713;30;136927;-38
2021/12/16 09:10:37;;;;;;;55.38;22.45;;;6.70;99.90;;;5.14;100.00;103334.06;2566183;30;138185;-38
2021/12/16 09:13:14;;;;;;;56.45;21.90;;;6.70;99.90;;;5.21;100.00;103329.06;2568758;30;137677;-38
2021/12/16 09:15:49;;;;;;;60.72;21.63;;;6.80;99.90;;;5.32;100.00;103334.50;2568322;30;138427;-38
2021/12/16 09:18:23;;;;;;;59.13;24.60;;;6.90;99.90;;;5.39;100.00;103345.75;2570049;30;136770;-38
2021/12/16 09:20:52;;;;;;;57.35;24.00;;;6.90;99.90;;;5.44;100.00;103344.44;2568544;30;137683;-38
2021/12/16 09:23:22;;;;;;;73.53;25.60;;;7.00;99.90;;;5.56;100.00;103350.72;2568888;30;138239;-38
2021/12/16 09:25:50;;;;;;;61.85;23.88;;;7.10;99.90;;;5.66;100.00;103347.34;2570231;30;138926;-38
2021/12/16 09:28:21;;;;;;;68.65;24.42;;;7.20;99.90;;;5.75;100.00;103357.44;2567843;30;137609;-38
2021/12/16 09:30:50;;;;;;;63.58;24.30;;;7.20;99.90;;;5.83;100.00;103359.56;2568060;30;138374;-38
2021/12/16 09:33:20;;;;;;;64.75;24.67;;;7.30;99.90;;;5.85;100.00;103353.06;2569029;30;136680;-38
2021/12/16 09:35:54;;;;;;;59.22;23.42;;;7.40;99.90;;;5.88;100.00;103352.81;2570445;30;138124;-39
2021/12/16 09:38:23;;;;;;;65.30;26.00;;;7.50;99.90;;;5.96;100.00;103346.78;2570917;30;136887;-38
2021/12/16 09:40:55;;;;;;;61.05;24.13;;;7.50;99.90;;;5.98;100.00;103349.38;2571695;30;139175;-38
2021/12/16 09:43:37;;;;;;;55.92;22.45;;;7.50;99.90;;;6.04;100.00;103352.53;2578671;30;137921;-41
2021/12/16 09:46:11;;;;;;;52.83;22.83;;;7.60;99.90;;;6.08;100.00;103355.81;2567247;30;137239;-41
2021/12/16 09:48:40;;;;;;;60.92;23.85;;;7.60;99.90;;;6.13;100.00;103367.19;2569209;30;137645;-41
2021/12/16 09:51:16;;;;;;;66.60;25.77;;;7.70;99.90;;;6.19;100.00;103360.41;2567487;30;137333;-40
2021/12/16 09:53:58;;;;;;;66.85;24.35;;;7.70;99.90;;;6.21;100.00;103363.00;2568095;30;139748;-41
2021/12/16 09:56:30;;;;;;;59.20;23.85;;;7.80;99.90;;;6.26;100.00;103366.22;2568329;30;138536;-41
2021/12/16 09:59:02;;;;;;;65.63;24.38;;;7.80;99.90;;;6.30;100.00;103356.84;2567620;30;138379;-41
2021/12/16 10:01:31;;;;;;;62.67;25.10;;;7.80;99.90;;;6.30;100.00;103352.31;2568543;30;137391;-40
2021/12/16 10:04:08;;;;;;;63.70;25.63;;;7.80;99.90;;;6.38;100.00;103343.56;2568559;30;138361;-41
2021/12/16 10:06:39;;;;;;;62.47;24.58;;;7.90;99.90;;;6.39;100.00;103349.84;2566001;30;138355;-41
2021/12/16 10:09:10;;;;;;;63.20;25.85;;;7.90;99.90;;;6.43;100.00;103346.75;2568210;30;136730;-40
2021/12/16 10:11:43;;;;;;;57.83;23.95;;;8.00;99.90;;;6.44;100.00;103350.31;2567211;30;138363;-41
2021/12/16 10:19:35;;;;;;;56.63;23.65;;;8.00;99.90;;;6.50;100.00;103357.13;2567846;30;137413;-41
2021/12/16 10:22:37;;;;;;;65.30;25.05;;;8.00;99.90;;;6.50;100.00;103351.69;2567643;30;138402;-41
2021/12/16 10:25:43;;;;;;;54.70;22.83;;;8.00;99.90;;;6.54;100.00;103350.44;2567649;30;137047;-41
2021/12/16 10:28:28;;;;;;;51.60;22.30;;;8.10;99.90;;;6.53;100.00;103346.88;2567048;30;137850;-41
2021/12/16 10:31:28;;;;;;;51.80;22.55;;;8.10;99.90;;;6.54;100.00;103345.91;2566445;30;137454;-41
2021/12/16 10:34:06;;;;;;;55.22;22.70;;;8.10;99.90;;;6.53;100.00;103349.59;2565650;30;137700;-41
2021/12/16 10:36:47;;;;;;;54.03;22.20;;;8.10;99.90;;;6.56;100.00;103351.19;2567176;30;137472;-40
2021/12/16 10:39:19;;;;;;;50.10;23.42;;;8.10;99.90;;;6.57;100.00;103347.50;2567298;30;138305;-41
2021/12/16 10:41:54;;;;;;;55.03;22.35;;;8.10;99.90;;;6.62;100.00;103340.72;2566066;30;137375;-41
2021/12/16 10:44:36;;;;;;;53.00;22.23;;;8.10;99.90;;;6.65;100.00;103353.19;2568235;30;138194;-41
2021/12/16 10:47:13;;;;;;;52.72;21.40;;;8.10;99.90;;;6.69;100.00;103351.06;2565116;30;138547;-41
2021/12/16 10:49:48;;;;;;;54.28;23.20;;;8.20;99.90;;;6.69;100.00;103354.66;2567742;30;139210;-41
2021/12/16 10:52:27;;;;;;;46.33;21.08;;;8.20;99.90;;;6.69;100.00;103365.50;2568910;30;137462;-41
2021/12/16 10:54:58;;;;;;;52.90;24.10;;;8.20;99.90;;;6.73;100.00;103358.84;2564650;30;138326;-41
2021/12/16 10:57:32;;;;;;;52.55;23.10;;;8.20;99.90;;;6.72;100.00;103362.53;2568470;30;138831;-41
2021/12/16 11:00:19;;;;;;;51.58;22.75;;;8.20;99.90;;;6.78;100.00;103368.44;2568889;30;138597;-40
2021/12/16 11:02:48;;;;;;;54.78;23.38;;;8.30;99.90;;;6.78;100.00;103372.03;2568097;30;137408;-41
2021/12/16 11:05:22;;;;;;;51.08;22.88;;;8.30;99.90;;;6.76;100.00;103364.00;2564618;30;138334;-41
2021/12/16 11:07:55;;;;;;;53.70;22.83;;;8.30;99.90;;;6.79;100.00;103372.88;2567110;30;137599;-41
2021/12/16 11:10:27;;;;;;;52.10;22.75;;;8.30;99.90;;;6.81;100.00;103368.19;2567561;30;136834;-41
2021/12/16 11:13:13;;;;;;;48.25;21.73;;;8.30;99.90;;;6.84;100.00;103370.66;2567121;30;138238;-41
2021/12/16 11:15:52;;;;;;;50.72;22.90;;;8.30;99.90;;;6.83;100.00;103374.34;2565965;30;138389;-41
2021/12/16 11:18:22;;;;;;;54.22;22.15;;;8.30;99.90;;;6.82;100.00;103373.50;2568346;30;137783;-41
2021/12/16 11:20:55;;;;;;;51.22;23.02;;;8.40;99.90;;;6.86;100.00;103380.41;2569111;30;138144;-41
2021/12/16 11:23:40;;;;;;;53.38;22.48;;;8.40;99.90;;;6.86;100.00;103371.38;2568878;30;137778;-41
2021/12/16 11:26:15;;;;;;;52.17;21.92;;;8.40;99.90;;;6.85;100.00;103373.25;2566319;30;137838;-41
2021/12/16 11:28:51;;;;;;;50.10;22.67;;;8.40;99.90;;;6.83;100.00;103372.53;2568490;30;137452;-41
2021/12/16 11:31:30;;;;;;;56.65;23.25;;;8.40;99.90;;;6.85;100.00;103372.38;2567240;30;138449;-41
2021/12/16 11:34:07;;;;;;;56.17;23.25;;;8.40;99.90;;;6.85;100.00;103362.41;2569561;30;136872;-41
2021/12/16 11:36:44;;;;;;;50.28;21.52;;;8.40;99.90;;;6.86;100.00;103374.97;2565003;30;138799;-41
2021/12/16 11:39:21;;;;;;;49.03;22.27;;;8.40;99.90;;;6.85;100.00;103366.94;2568937;30;137605;-41
2021/12/16 11:42:03;;;;;;;50.47;23.50;;;8.40;99.90;;;6.86;100.00;103365.94;2569265;30;139143;-41
2021/12/16 11:44:37;;;;;;;49.08;22.67;;;8.40;99.90;;;6.86;100.00;103369.53;2568821;30;138393;-41
2021/12/16 11:47:20;;;;;;;49.40;23.02;;;8.40;99.90;;;6.86;100.00;103371.38;2565811;30;139457;-41
2021/12/16 11:49:57;;;;;;;45.17;20.23;;;8.40;99.90;;;6.87;100.00;103360.41;2567935;30;138413;-41
2021/12/16 11:52:35;;;;;;;50.05;22.88;;;8.40;99.90;;;6.96;100.00;103358.81;2568238;30;138822;-41
2021/12/16 11:55:10;;;;;;;54.03;23.85;;;8.40;99.90;;;7.03;100.00;103360.00;2568094;30;136922;-41
2021/12/16 11:57:51;;;;;;;57.17;23.73;;;8.50;99.90;;;7.09;100.00;103360.50;2568507;30;139139;-41
2021/12/16 12:00:22;;;;;;;46.47;22.40;;;8.60;99.90;;;7.13;100.00;103361.97;2567559;30;137692;-40
2021/12/16 12:03:15;;;;;;;52.97;23.48;;;8.60;99.90;;;7.14;100.00;103358.25;2567796;30;138300;-41
2021/12/16 12:05:49;;;;;;;51.90;23.20;;;8.60;99.90;;;7.13;100.00;103356.53;2566877;30;137505;-41
2021/12/16 12:08:27;;;;;;;51.28;22.42;;;8.60;99.90;;;7.11;100.00;103355.78;2566719;30;139152;-41
2021/12/16 12:11:05;;;;;;;50.33;22.60;;;8.60;99.90;;;7.11;100.00;103353.06;2568799;30;137669;-41
2021/12/16 12:13:50;;;;;;;46.95;21.75;;;8.60;99.90;;;7.13;100.00;103353.81;2568397;30;138380;-41
2021/12/16 12:16:33;;;;;;;51.13;22.63;;;8.70;99.90;;;7.17;100.00;103350.72;2568680;30;137107;-41
2021/12/16 12:19:21;;;;;;;49.75;22.20;;;8.70;99.90;;;7.21;100.00;103348.63;2568267;30;138280;-41
2021/12/16 12:22:02;;;;;;;61.42;23.88;;;8.70;99.90;;;7.28;100.00;103352.53;2567649;30;137507;-41
2021/12/16 12:24:44;;;;;;;54.33;22.60;;;8.70;99.90;;;7.38;100.00;103357.19;2567771;30;138857;-41
2021/12/16 12:27:23;;;;;;;50.00;21.40;;;8.80;99.90;;;7.41;100.00;103349.66;2568679;30;138258;-40
2021/12/16 12:29:57;;;;;;;52.13;22.77;;;8.80;99.90;;;7.45;100.00;103348.41;2568639;30;137533;-41
2021/12/16 12:32:29;;;;;;;48.03;21.23;;;8.90;99.90;;;7.50;100.00;103348.03;2568041;30;138117;-41
2021/12/16 12:35:17;;;;;;;50.50;21.67;;;9.00;99.90;;;7.44;100.00;103345.84;2566730;30;137207;-41
2021/12/16 12:38:07;;;;;;;50.15;21.15;;;8.90;99.90;;;7.45;100.00;103358.41;2566945;30;137848;-41
2021/12/16 12:40:40;;;;;;;50.03;21.02;;;9.00;99.90;;;7.42;100.00;103351.38;2568329;30;137831;-41
2021/12/16 12:43:09;;;;;;;49.78;21.48;;;8.90;99.90;;;7.38;100.00;103359.91;2568751;30;137573;-41
2021/12/16 12:45:41;;;;;;;51.33;21.60;;;8.90;99.90;;;7.39;100.00;103354.34;2566874;30;138361;-41
2021/12/16 12:48:19;;;;;;;48.75;19.83;;;8.90;99.90;;;7.42;100.00;103358.66;2568877;30;137807;-41
2021/12/16 12:50:51;;;;;;;43.47;20.00;;;8.90;99.90;;;7.41;100.00;103362.38;2567937;30;138297;-41
2021/12/16 12:53:30;;;;;;;45.90;20.00;;;8.90;99.90;;;7.47;100.00;103365.44;2568587;30;137537;-41
2021/12/16 12:56:32;;;;;;;43.38;19.30;;;8.90;99.90;;;7.60;100.00;103367.97;2567790;30;138379;-41
2021/12/16 12:59:11;;;;;;;51.47;19.33;;;9.00;99.90;;;7.61;100.00;103364.25;2568822;30;137429;-41
2021/12/16 13:01:52;;;;;;;43.17;18.20;;;9.00;99.90;;;7.63;100.00;103367.69;2567462;30;137732;-41
2021/12/16 13:04:33;;;;;;;42.17;18.20;;;9.10;99.90;;;7.67;100.00;103370.16;2567548;30;136807;-41
2021/12/16 13:07:11;;;;;;;47.92;19.25;;;9.10;99.90;;;7.58;100.00;103364.53;2565788;30;138514;-41
2021/12/16 13:09:38;;;;;;;48.67;19.90;;;9.10;99.90;;;7.59;100.00;103368.13;2568314;30;137125;-41
2021/12/16 13:13:14;;;;;;;47.35;19.85;;;9.10;99.90;;;7.67;100.00;103362.88;2568140;30;138426;-41
2021/12/16 13:27:34;;;;;;;49.53;20.30;;;9.10;99.90;;;7.71;100.00;103364.34;2567728;30;138415;-41
2021/12/16 13:33:16;;;;;;;;;;;9.20;99.90;;;7.75;100.00;103364.94;2568523;30;137519;-41
2021/12/16 13:35:51;;;;;;;45.17;20.50;;;9.20;99.90;;;7.78;100.00;103364.69;2567327;30;138479;-41